IE-0012 weather

Ballinvally Farm Airstrip
County Westmeath, Ireland

Public forecast

Using degrees Celsius for public forecast. Weather courtesy of forecast.io.

METAR (pilot weather report)

Report is more than 2 hours old.

Closest report is Waterford Airport, 36.4 nm (67.4 km) SW. Retrieved 2019/06/18 20:30 UTC (3 hours ago):

EIWF 182030Z VRB03KT CAVOK ///// Q1011

TAF (pilot weather forecast)

Closest forecast is Dublin Airport, 51.1 nm (94.6 km) N. Retrieved 2019/06/18 18:09 UTC (5 hours ago):

TAF EIDW 181700Z 1818/1918 14010KT 9999 FEW025 SCT040 BECMG 1818/1820 VRB03KT BECMG 1821/1823 28007KT BECMG 1909/1911 26012KT TEMPO 1913/1918 FEW020CB BKN025